Richmond, Virginia
Current Conditions -  °F | °C
As of 9:54 AM on Saturday 20 Dec 2014 (Local Time) from KRIC Reporting Station
Overcast Overcast  
Wind Chill: -2°   Ceiling: 18000
Heat Index:   Visibility: 10mi
Dew Point: -6°   Wind: 7mph
Humidity: 59%   Direction: 50°NE
Pressure: 30.32"   Gusts: NA
Location:  37.54°N, 77.43°W
Report Text: KRIC 201454Z 05006KT 10SM SCT120 BKN180 OVC250 02/M06 A3032 RMK AO2 SLP275 T00171056 51008
Loading
Personal Weather Stations






























Interactive Weather Map New forecast layout! Learn more

10-Day Weather Forecast

Advertisements
Track Severe Weather on mobile